Pickens, West Virginia
Current Conditions -  °F | °C
As of 10:35 AM on Thursday 27 Nov 2014 (Local Time) from KW22 Reporting Station
Overcast Overcast  
Wind Chill: 24°   Ceiling: 3200
Heat Index: 32°   Visibility: 9mi
Dew Point: 32°   Wind: 9mph
Humidity: 100%   Direction: 270°W
Pressure: 30.07"   Gusts: NA
Location:  38.66°N, 80.21°W
Report Text: KW22 271535Z AUTO 27008KT 9SM FEW027 BKN032 OVC038 M00/M00 A3007 RMK AO2
Loading
Personal Weather Stations






























Interactive Weather Map New forecast layout! Learn more

10-Day Weather Forecast

Advertisements
Track Severe Weather on mobile